Aviation Digital Data Service (ADDS)

Output produced by METARs form (0034 UTC 26 June 2019)
found at http://aviationweather.gov/metar/data/
 
KUTS 260000Z 2600/2624 16005KT P6SM FEW050 SCT100 
     TEMPO 2600/2602 -RA 
     FM260200 16005KT P6SM FEW030 SCT150 
     FM261500 15008KT P6SM VCSH SCT035 
     FM261900 15007KT P6SM VCTS SCT040CB